Terminal Aerodrome Forecast
Issued by NWS

Home | Current Version | Previous Version | Graphics & Text | Print | Product List | Glossary Off
Versions: 1 2 3 4 5 6 7 8 9 10 11 12 13 14 15 16 17 18 19 20 21 22 23 24 25 26 27 28 29 30 31 32 33 34

000
FTUS43 KDDC 220538
TAFGCK
TAF
KGCK 220538Z 2206/2306 31009KT P6SM SCT150
     FM220900 01013KT P6SM BKN080
     FM221200 03017G26KT P6SM BKN008
     FM221600 04018G26KT P6SM BKN015
     FM221800 05016G24KT P6SM SCT030
     FM230400 09006KT P6SM FEW200=

USA.gov is the U.S. government's official web portal to all federal, state and local government web resources and services.